Time;durP1;ratioP1;P1;durP2;ratioP2;P2;SDS_P1;SDS_P2;PMS_P1;PMS_P2;Temp;Humidity;BMP_temperature;BMP_pressure;BME280_temperature;BME280_humidity;BME280_pressure;Samples;Min_cycle;Max_cycle;Signal;HPM_P1;HPM_P2
2021/01/13 00:00:09;;;;;;;11.55;9.02;;;2.00;99.90;;;;;;4956229;28;20268;-84
2021/01/13 00:02:36;;;;;;;9.60;7.97;;;2.10;99.90;;;;;;4956259;29;20208;-84
2021/01/13 00:05:02;;;;;;;8.88;8.02;;;2.20;99.90;;;;;;4955890;29;20240;-84
2021/01/13 00:07:28;;;;;;;9.50;8.55;;;2.30;99.90;;;;;;4955997;29;20747;-84
2021/01/13 00:09:55;;;;;;;8.98;7.63;;;2.30;99.90;;;;;;4955724;28;20311;-84
2021/01/13 00:12:21;;;;;;;13.95;8.68;;;2.30;99.90;;;;;;4954985;29;20232;-84
2021/01/13 00:14:48;;;;;;;15.57;9.38;;;2.20;99.90;;;;;;4955365;29;20280;-84
2021/01/13 00:17:14;;;;;;;11.07;8.77;;;2.30;99.90;;;;;;4955983;29;20227;-84
2021/01/13 00:19:41;;;;;;;9.88;8.52;;;2.30;99.90;;;;;;4967135;28;20328;-84
2021/01/13 00:22:08;;;;;;;11.50;7.70;;;2.40;99.90;;;;;;4954958;29;20293;-84
2021/01/13 00:24:35;;;;;;;10.70;8.23;;;2.40;99.90;;;;;;4955711;29;20292;-84
2021/01/13 00:27:02;;;;;;;10.95;7.82;;;2.50;99.90;;;;;;4955464;29;20670;-84
2021/01/13 00:29:29;;;;;;;8.13;7.28;;;2.50;99.90;;;;;;4954976;28;20241;-84
2021/01/13 00:31:57;;;;;;;11.50;7.00;;;2.60;99.90;;;;;;4955002;29;20209;-84
2021/01/13 00:34:24;;;;;;;10.70;7.07;;;2.70;99.90;;;;;;4955103;29;20206;-84
2021/01/13 00:36:56;;;;;;;9.38;7.53;;;2.70;99.90;;;;;;4955356;29;20213;-84
2021/01/13 00:39:22;;;;;;;9.23;7.57;;;2.70;99.90;;;;;;4955129;28;20209;-84
2021/01/13 00:41:48;;;;;;;8.18;7.47;;;2.80;99.90;;;;;;4954859;28;20212;-84
2021/01/13 00:44:15;;;;;;;5.65;4.60;;;2.80;99.90;;;;;;4954991;29;20205;-84
2021/01/13 00:46:44;;;;;;;4.95;4.50;;;2.80;99.90;;;;;;4955308;28;20213;-84
2021/01/13 00:49:12;;;;;;;5.57;5.13;;;2.90;99.90;;;;;;4955429;29;20667;-84
2021/01/13 00:51:40;;;;;;;5.82;5.20;;;2.80;99.90;;;;;;4955771;28;20239;-84
2021/01/13 00:54:07;;;;;;;5.13;4.63;;;2.80;99.90;;;;;;4955901;29;20241;-84
2021/01/13 00:56:34;;;;;;;7.10;5.53;;;2.80;99.90;;;;;;4955419;29;20241;-84
2021/01/13 00:59:01;;;;;;;8.25;5.82;;;2.70;99.90;;;;;;4955216;29;20233;-84
2021/01/13 01:01:28;;;;;;;5.68;5.25;;;2.70;99.90;;;;;;4957086;28;20228;-84
2021/01/13 01:03:54;;;;;;;9.68;5.97;;;2.70;99.90;;;;;;4958760;29;20213;-84
2021/01/13 01:06:22;;;;;;;11.50;5.97;;;2.60;99.90;;;;;;4970364;28;20205;-84
2021/01/13 01:08:48;;;;;;;10.07;5.47;;;2.60;99.90;;;;;;4958961;29;20205;-84
2021/01/13 01:11:18;;;;;;;9.15;5.80;;;2.50;99.90;;;;;;4958514;28;20280;-84
2021/01/13 01:13:46;;;;;;;6.78;5.95;;;2.50;99.90;;;;;;4958586;28;20301;-84
2021/01/13 01:16:12;;;;;;;5.65;5.05;;;2.40;99.90;;;;;;4958505;29;20292;-84
2021/01/13 01:18:38;;;;;;;5.68;5.00;;;2.40;99.90;;;;;;4958591;29;20216;-84
2021/01/13 01:21:07;;;;;;;7.10;5.05;;;2.40;99.90;;;;;;4958813;28;20229;-84
2021/01/13 01:23:35;;;;;;;15.85;5.43;;;2.40;99.90;;;;;;4958602;29;20590;-84
2021/01/13 01:26:01;;;;;;;7.90;5.57;;;2.40;99.90;;;;;;4958801;29;20676;-84
2021/01/13 01:28:27;;;;;;;10.05;5.40;;;2.40;99.90;;;;;;4958409;29;20766;-84
2021/01/13 01:30:54;;;;;;;7.65;5.32;;;2.50;99.90;;;;;;4958153;28;20248;-84
2021/01/13 01:33:20;;;;;;;7.88;7.28;;;2.40;99.90;;;;;;4958280;29;20201;-84
2021/01/13 01:35:47;;;;;;;7.50;4.88;;;2.50;99.90;;;;;;4958629;29;20303;-84
2021/01/13 01:38:13;;;;;;;11.60;5.85;;;2.50;99.90;;;;;;4958523;29;20685;-84
2021/01/13 01:40:40;;;;;;;7.07;4.80;;;2.40;99.90;;;;;;4958417;28;20244;-84
2021/01/13 01:43:06;;;;;;;6.32;5.53;;;2.40;99.90;;;;;;4958302;29;20212;-84
2021/01/13 01:45:33;;;;;;;7.20;4.85;;;2.40;99.90;;;;;;4958115;28;20225;-84
2021/01/13 01:48:21;;;;;;;6.90;5.25;;;2.40;99.90;;;;;;4958542;29;20217;-84
2021/01/13 01:50:48;;;;;;;12.90;6.07;;;2.40;99.90;;;;;;4960637;28;20233;-84
2021/01/13 01:53:33;;;;;;;5.05;4.65;;;2.40;99.90;;;;;;4968488;28;20205;-84
2021/01/13 01:56:16;;;;;;;6.05;4.97;;;2.40;99.90;;;;;;4959000;29;20215;-84
2021/01/13 01:58:47;;;;;;;7.28;5.43;;;2.40;99.90;;;;;;4958704;29;20235;-84
2021/01/13 02:01:15;;;;;;;8.05;5.50;;;2.50;99.90;;;;;;4958858;28;20236;-84
2021/01/13 02:03:46;;;;;;;6.13;5.63;;;2.50;99.90;;;;;;4959268;29;20213;-84
2021/01/13 02:06:16;;;;;;;5.35;4.85;;;2.50;99.90;;;;;;4958676;29;20219;-84
2021/01/13 02:08:43;;;;;;;5.50;4.55;;;2.60;99.90;;;;;;4959500;29;20205;-84
2021/01/13 02:11:15;;;;;;;8.90;4.20;;;2.60;99.90;;;;;;4958860;28;20233;-84
2021/01/13 02:13:41;;;;;;;6.85;4.65;;;2.50;99.90;;;;;;4959481;28;20185;-84
2021/01/13 02:16:09;;;;;;;5.30;4.80;;;2.40;99.90;;;;;;4958989;29;20217;-84
2021/01/13 02:18:36;;;;;;;8.43;5.28;;;2.50;99.90;;;;;;4959072;29;20213;-84
2021/01/13 02:21:04;;;;;;;5.90;5.30;;;2.40;99.90;;;;;;4959488;28;20296;-84
2021/01/13 02:23:33;;;;;;;6.30;4.47;;;2.40;99.90;;;;;;4959086;29;20216;-84
2021/01/13 02:26:36;;;;;;;5.60;4.75;;;2.40;99.90;;;;;;4959389;29;20299;-84
2021/01/13 02:29:28;;;;;;;5.20;4.68;;;2.50;99.90;;;;;;4949424;29;20212;-84
2021/01/13 02:32:00;;;;;;;5.68;4.03;;;2.50;99.90;;;;;;4959815;28;20209;-84
2021/01/13 02:34:37;;;;;;;5.47;4.03;;;2.60;99.90;;;;;;4959952;29;20280;-84
2021/01/13 02:37:42;;;;;;;3.40;3.05;;;2.60;99.90;;;;;;4960604;29;20259;-84
2021/01/13 02:40:14;;;;;;;4.20;3.50;;;2.60;99.90;;;;;;4966088;28;20232;-84
2021/01/13 02:42:48;;;;;;;4.07;3.78;;;2.70;99.90;;;;;;4960425;29;20240;-84
2021/01/13 02:45:18;;;;;;;4.05;3.42;;;2.70;99.90;;;;;;4961351;28;20192;-84
2021/01/13 02:48:13;;;;;;;4.18;3.55;;;2.70;99.90;;;;;;4961045;29;20683;-84
2021/01/13 02:50:52;;;;;;;5.55;3.75;;;2.70;99.90;;;;;;4961568;28;20225;-84
2021/01/13 02:53:49;;;;;;;5.88;3.50;;;2.80;99.90;;;;;;4961374;28;20237;-84
2021/01/13 02:56:33;;;;;;;5.20;4.13;;;2.80;99.90;;;;;;4961333;29;20216;-84
2021/01/13 02:59:07;;;;;;;4.38;3.97;;;2.70;99.90;;;;;;4961464;29;20212;-84
2021/01/13 03:01:38;;;;;;;7.10;4.00;;;2.70;99.90;;;;;;4961137;28;20505;-84
2021/01/13 03:04:05;;;;;;;4.80;3.92;;;2.80;99.90;;;;;;4962054;29;20586;-84
2021/01/13 03:06:36;;;;;;;4.45;3.60;;;2.80;99.90;;;;;;4961562;29;20243;-84
2021/01/13 03:09:05;;;;;;;6.90;3.75;;;2.80;99.90;;;;;;4961183;29;20185;-84
2021/01/13 03:11:32;;;;;;;10.23;4.68;;;2.80;99.90;;;;;;4961299;28;20235;-84
2021/01/13 03:14:17;;;;;;;3.45;3.15;;;2.80;99.90;;;;;;4961419;29;20363;-84
2021/01/13 03:17:03;;;;;;;4.00;3.70;;;2.90;99.90;;;;;;4961409;29;20211;-84
2021/01/13 03:19:43;;;;;;;4.22;3.85;;;2.90;99.90;;;;;;4961970;28;20237;-84
2021/01/13 03:22:19;;;;;;;6.35;5.85;;;2.90;99.90;;;;;;4961414;29;20229;-84
2021/01/13 03:24:52;;;;;;;6.38;4.70;;;3.00;99.90;;;;;;4967997;28;20211;-84
2021/01/13 03:27:21;;;;;;;5.07;4.55;;;3.00;99.90;;;;;;4962030;29;20240;-84
2021/01/13 03:29:49;;;;;;;12.30;5.03;;;3.00;99.90;;;;;;4960692;28;20312;-84
2021/01/13 03:32:22;;;;;;;4.60;4.18;;;3.00;99.90;;;;;;4961374;29;20209;-83
2021/01/13 03:35:08;;;;;;;4.65;4.25;;;2.90;99.90;;;;;;4960760;29;20193;-84
2021/01/13 03:37:56;;;;;;;4.45;4.05;;;2.90;99.90;;;;;;4961184;28;20260;-84
2021/01/13 03:40:25;;;;;;;4.07;3.78;;;2.90;99.90;;;;;;4961197;28;20315;-84
2021/01/13 03:42:56;;;;;;;4.43;3.88;;;2.90;99.90;;;;;;4961138;29;20213;-84
2021/01/13 03:45:37;;;;;;;3.90;3.30;;;2.90;99.90;;;;;;4961069;28;20252;-84
2021/01/13 03:48:10;;;;;;;6.80;5.15;;;2.80;99.90;;;;;;4962815;29;20292;-84
2021/01/13 03:50:39;;;;;;;4.38;3.83;;;2.80;99.90;;;;;;4963580;28;20241;-84
2021/01/13 03:53:07;;;;;;;4.53;4.13;;;2.80;99.90;;;;;;4962788;29;20209;-84
2021/01/13 03:55:36;;;;;;;5.55;3.90;;;2.80;99.90;;;;;;4962332;29;20228;-84
2021/01/13 03:58:36;;;;;;;4.93;4.28;;;2.80;99.90;;;;;;4961521;29;20220;-84
2021/01/13 04:01:23;;;;;;;4.68;3.97;;;2.80;99.90;;;;;;4963116;28;20553;-84
2021/01/13 04:03:59;;;;;;;6.35;3.58;;;2.70;99.90;;;;;;4962078;29;20211;-84
2021/01/13 04:06:26;;;;;;;5.20;4.03;;;2.70;99.90;;;;;;4961549;29;20205;-85
2021/01/13 04:08:53;;;;;;;6.03;4.10;;;2.70;99.90;;;;;;4961188;29;20228;-84
2021/01/13 04:11:21;;;;;;;5.35;4.53;;;2.60;99.90;;;;;;4966635;28;20251;-84
2021/01/13 04:13:52;;;;;;;4.78;3.95;;;2.60;99.90;;;;;;4962603;28;20201;-84
2021/01/13 04:16:20;;;;;;;5.55;4.63;;;2.50;99.90;;;;;;4961285;29;20569;-84
2021/01/13 04:18:49;;;;;;;4.47;4.07;;;2.50;99.90;;;;;;4960742;29;20675;-84
2021/01/13 04:21:18;;;;;;;6.97;4.13;;;2.50;99.90;;;;;;4960685;28;20259;-84
2021/01/13 04:23:45;;;;;;;5.65;4.00;;;2.50;99.90;;;;;;4960670;29;20209;-84
2021/01/13 04:26:13;;;;;;;7.53;4.40;;;2.40;99.90;;;;;;4961105;29;20252;-84
2021/01/13 04:28:41;;;;;;;6.85;4.57;;;2.40;99.90;;;;;;4961207;29;20248;-84
2021/01/13 04:31:08;;;;;;;4.25;3.85;;;2.40;99.90;;;;;;4960336;28;20253;-84
2021/01/13 04:33:34;;;;;;;8.00;4.45;;;2.30;99.90;;;;;;4960171;29;20339;-84
2021/01/13 04:36:02;;;;;;;6.20;5.20;;;2.30;99.90;;;;;;4964964;28;20271;-84
2021/01/13 04:38:30;;;;;;;9.65;5.47;;;2.20;99.90;;;;;;4966306;29;20211;-84
2021/01/13 04:41:06;;;;;;;4.30;3.90;;;2.20;99.90;;;;;;4965204;28;20229;-84
2021/01/13 04:43:52;;;;;;;6.65;4.43;;;2.20;99.90;;;;;;4964557;29;20199;-84
2021/01/13 04:46:30;;;;;;;4.55;4.10;;;2.20;99.90;;;;;;4964342;28;20248;-84
2021/01/13 04:49:07;;;;;;;6.93;4.05;;;2.20;99.90;;;;;;4962879;29;20209;-85
2021/01/13 04:51:36;;;;;;;6.65;4.18;;;2.20;99.90;;;;;;4963581;28;20251;-84
2021/01/13 04:54:09;;;;;;;5.78;4.50;;;2.10;99.90;;;;;;4963959;29;20205;-84
2021/01/13 04:57:07;;;;;;;8.15;4.70;;;2.10;99.90;;;;;;4963181;29;20212;-84
2021/01/13 05:00:08;;;;;;;5.60;4.38;;;2.10;99.90;;;;;;4970580;28;20608;-84
2021/01/13 05:02:44;;;;;;;6.78;4.20;;;2.10;99.90;;;;;;4961356;28;20279;-85
2021/01/13 05:05:20;;;;;;;5.97;4.10;;;2.00;99.90;;;;;;4961491;29;20193;-85
2021/01/13 05:07:58;;;;;;;7.50;5.22;;;2.00;99.90;;;;;;4961556;29;20263;-85
2021/01/13 05:10:28;;;;;;;7.25;4.00;;;2.00;99.90;;;;;;4961578;28;20225;-84
2021/01/13 05:12:55;;;;;;;7.78;5.97;;;2.00;99.90;;;;;;4960480;29;20198;-85
2021/01/13 05:15:26;;;;;;;8.20;5.25;;;2.10;99.90;;;;;;4960382;29;20209;-85
2021/01/13 05:18:04;;;;;;;7.13;4.68;;;2.10;99.90;;;;;;4960243;29;20205;-85
2021/01/13 05:20:32;;;;;;;4.85;4.35;;;2.20;99.90;;;;;;4960167;28;20260;-84
2021/01/13 05:22:59;;;;;;;5.15;4.65;;;2.20;99.90;;;;;;4960093;29;20303;-85
2021/01/13 05:25:44;;;;;;;5.95;4.25;;;2.30;99.90;;;;;;4960421;28;20213;-84
2021/01/13 05:28:13;;;;;;;7.47;5.05;;;2.30;99.90;;;;;;4960204;29;20248;-84
2021/01/13 05:30:41;;;;;;;5.82;4.78;;;2.40;99.90;;;;;;4959797;28;20230;-85
2021/01/13 05:33:13;;;;;;;7.70;4.35;;;2.50;99.90;;;;;;4959403;29;20675;-85
2021/01/13 05:35:43;;;;;;;6.25;4.40;;;2.50;99.90;;;;;;4958646;29;20198;-85
2021/01/13 05:38:44;;;;;;;9.40;3.97;;;2.50;99.90;;;;;;4959188;29;20221;-85
2021/01/13 05:41:12;;;;;;;8.85;3.72;;;2.50;99.90;;;;;;4958730;28;20261;-85
2021/01/13 05:43:43;;;;;;;6.03;5.10;;;2.50;99.90;;;;;;4969840;28;20206;-85
2021/01/13 05:46:11;;;;;;;6.72;4.30;;;2.50;99.90;;;;;;4976988;28;20276;-85
2021/01/13 05:48:41;;;;;;;4.45;4.13;;;2.50;99.90;;;;;;4972767;29;20209;-85
2021/01/13 05:51:08;;;;;;;5.70;4.28;;;2.40;99.90;;;;;;4963340;28;20261;-85
2021/01/13 05:53:35;;;;;;;6.40;4.15;;;2.40;99.90;;;;;;4959127;29;20767;-84
2021/01/13 05:56:03;;;;;;;5.18;4.78;;;2.40;99.90;;;;;;4958279;29;20210;-85
2021/01/13 05:58:32;;;;;;;5.00;4.60;;;2.50;99.90;;;;;;4957491;29;20221;-85
2021/01/13 06:00:59;;;;;;;6.57;5.82;;;2.50;99.90;;;;;;4957386;28;20237;-85
2021/01/13 06:03:30;;;;;;;4.25;3.63;;;2.50;99.90;;;;;;4957689;29;20357;-85
2021/01/13 06:05:59;;;;;;;5.75;4.30;;;2.50;99.90;;;;;;4957965;29;20632;-85
2021/01/13 06:08:28;;;;;;;5.60;4.50;;;2.50;99.90;;;;;;4957722;29;20212;-85
2021/01/13 06:11:01;;;;;;;7.80;4.65;;;2.50;99.90;;;;;;4957930;28;20225;-85
2021/01/13 06:13:33;;;;;;;7.63;5.35;;;2.50;99.90;;;;;;4957366;29;20308;-85
2021/01/13 06:16:04;;;;;;;5.35;4.20;;;2.40;99.90;;;;;;4957877;29;20269;-85
2021/01/13 06:18:32;;;;;;;5.45;4.70;;;2.30;99.90;;;;;;4957748;29;20306;-85
2021/01/13 06:21:07;;;;;;;4.50;4.10;;;2.20;99.90;;;;;;4957866;28;20316;-85
2021/01/13 06:23:42;;;;;;;7.40;4.65;;;2.10;99.90;;;;;;4957342;29;20196;-85
2021/01/13 06:26:09;;;;;;;6.00;5.30;;;2.00;99.90;;;;;;4957656;29;20674;-85
2021/01/13 06:29:26;;;;;;;6.22;4.80;;;2.00;99.90;;;;;;4958442;28;20223;-85
2021/01/13 06:31:57;;;;;;;7.07;5.50;;;1.90;99.90;;;;;;4965308;28;20220;-85
2021/01/13 06:34:27;;;;;;;9.70;5.07;;;1.80;99.90;;;;;;4963535;29;20233;-85
2021/01/13 06:37:37;;;;;;;5.47;4.78;;;1.80;99.90;;;;;;4961475;28;20236;-85
2021/01/13 06:40:13;;;;;;;11.75;5.20;;;1.70;99.90;;;;;;4899064;29;20239;-85
2021/01/13 06:42:39;;;;;;;4.75;4.28;;;1.70;99.90;;;;;;4897880;29;20251;-85
2021/01/13 06:45:08;;;;;;;4.85;4.45;;;1.70;99.90;;;;;;4931504;28;20220;-85
2021/01/13 06:47:36;;;;;;;5.38;4.45;;;1.60;99.90;;;;;;4956874;28;20300;-85
2021/01/13 06:50:03;;;;;;;7.03;5.35;;;1.50;99.90;;;;;;4956875;28;20229;-85
2021/01/13 06:52:31;;;;;;;8.52;5.57;;;1.50;99.90;;;;;;4956812;29;20204;-85
2021/01/13 06:55:01;;;;;;;7.00;6.00;;;1.50;99.90;;;;;;4956822;29;20635;-85
2021/01/13 06:57:29;;;;;;;7.72;5.88;;;1.40;99.90;;;;;;4957758;28;20217;-85
2021/01/13 06:59:56;;;;;;;7.65;5.75;;;1.40;99.90;;;;;;4955923;28;20237;-85
2021/01/13 07:02:34;;;;;;;6.25;5.25;;;1.40;99.90;;;;;;4956870;29;20289;-85
2021/01/13 07:05:31;;;;;;;;;;;;;;;;;;;;;
2021/01/13 07:11:28;;;;;;;;;;;;;;;;;;;;;
2021/01/13 07:14:12;;;;;;;9.23;5.55;;;1.50;99.90;;;;;;4950181;28;20205;-85
2021/01/13 07:51:42;;;;;;;10.82;6.22;;;1.40;99.90;;;;;;5193506;23;20260;-85
2021/01/13 08:14:48;;;;;;;16.23;6.40;;;1.80;99.90;;;;;;5334517;23;20237;-85
2021/01/13 08:18:12;;;;;;;;;;;;;;;;;;;;;
2021/01/13 08:59:52;;;;;;;7.25;6.63;;;2.90;99.90;;;;;;4814507;29;20236;-85
2021/01/13 09:02:26;;;;;;;8.27;7.43;;;3.10;99.90;;;;;;4919550;28;20215;-85
2021/01/13 09:05:02;;;;;;;6.00;5.25;;;3.10;99.90;;;;;;4955047;29;20255;-84
2021/01/13 09:07:43;;;;;;;6.82;6.13;;;3.20;99.90;;;;;;4955100;29;20195;-84
2021/01/13 09:10:14;;;;;;;7.22;6.63;;;3.30;99.90;;;;;;4955091;28;20229;-85
2021/01/13 09:12:47;;;;;;;8.07;6.75;;;3.30;99.90;;;;;;4956047;29;20209;-85
2021/01/13 09:15:28;;;;;;;7.15;6.22;;;3.30;99.90;;;;;;4955042;28;20229;-85
2021/01/13 09:18:08;;;;;;;10.43;7.70;;;3.30;99.90;;;;;;4955495;29;20217;-85
2021/01/13 09:21:05;;;;;;;6.78;5.95;;;3.30;99.90;;;;;;4954427;28;20233;-85
2021/01/13 09:23:45;;;;;;;6.72;6.03;;;3.40;99.90;;;;;;4958128;29;20209;-85
2021/01/13 09:26:23;;;;;;;6.53;5.10;;;3.40;99.90;;;;;;4958521;29;20570;-85
2021/01/13 09:29:12;;;;;;;;;;;;;;;;;;;;;
2021/01/13 09:32:10;;;;;;;7.95;5.45;;;3.50;99.90;;;;;;4957769;28;20616;-85
2021/01/13 09:35:31;;;;;;;15.45;14.02;;;3.40;99.90;;;;;;4958346;28;20294;-85
2021/01/13 09:38:03;;;;;;;10.15;4.10;;;3.40;99.90;;;;;;4872316;29;20216;-85
2021/01/13 09:40:59;;;;;;;4.00;3.65;;;3.40;99.90;;;;;;4914978;28;20306;-85
2021/01/13 09:43:37;;;;;;;4.82;3.53;;;3.40;99.90;;;;;;4925132;28;20241;-85
2021/01/13 09:46:26;;;;;;;3.70;3.40;;;3.40;99.90;;;;;;4959282;29;20213;-84
2021/01/13 09:49:05;;;;;;;5.32;4.47;;;3.40;99.90;;;;;;4959040;28;20186;-85
2021/01/13 09:51:32;;;;;;;4.20;3.78;;;3.30;99.90;;;;;;4959933;28;20221;-86
2021/01/13 09:54:01;;;;;;;4.80;3.97;;;3.30;99.90;;;;;;4964422;29;20209;-85
2021/01/13 09:56:36;;;;;;;4.10;3.63;;;3.30;99.90;;;;;;4961309;28;20292;-84
2021/01/13 09:59:25;;;;;;;5.55;4.70;;;3.30;99.90;;;;;;4961172;29;20205;-85
2021/01/13 10:02:03;;;;;;;4.35;3.60;;;3.30;99.90;;;;;;4959268;29;20229;-85
2021/01/13 10:04:59;;;;;;;5.10;4.00;;;3.30;99.90;;;;;;4958160;29;20205;-84
2021/01/13 10:07:40;;;;;;;;;;;;;;;;;;;;;
2021/01/13 10:10:15;;;;;;;5.18;2.88;;;3.50;99.90;;;;;;4958113;28;20217;-84
2021/01/13 10:12:46;;;;;;;5.80;3.70;;;3.50;99.90;;;;;;4958360;29;20209;-84
2021/01/13 10:15:19;;;;;;;3.25;3.05;;;3.50;99.90;;;;;;4957654;28;20267;-84
2021/01/13 10:21:11;;;;;;;3.53;3.33;;;3.60;99.90;;;;;;4956629;28;20283;-84
2021/01/13 10:23:50;;;;;;;3.72;3.00;;;3.70;99.90;;;;;;4957707;29;20193;-84
2021/01/13 10:26:26;;;;;;;3.20;3.00;;;3.80;99.90;;;;;;4969288;28;20253;-83
2021/01/13 10:28:58;;;;;;;3.90;3.60;;;3.80;99.90;;;;;;4959232;29;20253;-84
2021/01/13 10:31:32;;;;;;;2.78;2.58;;;3.80;99.90;;;;;;4958183;28;20229;-83
2021/01/13 10:34:04;;;;;;;4.22;3.55;;;3.70;99.90;;;;;;4958109;28;20232;-84
2021/01/13 10:36:37;;;;;;;6.47;3.50;;;3.90;99.90;;;;;;4958315;29;20309;-83
2021/01/13 10:39:18;;;;;;;4.82;3.55;;;3.90;99.90;;;;;;4959312;29;20224;-84
2021/01/13 10:41:46;;;;;;;4.10;3.40;;;3.90;99.90;;;;;;4958025;28;20244;-85
2021/01/13 10:44:25;;;;;;;4.30;3.55;;;4.00;99.90;;;;;;4958813;29;20214;-83
2021/01/13 10:47:27;;;;;;;5.50;3.90;;;4.00;99.90;;;;;;4958675;29;20679;-84
2021/01/13 10:50:48;;;;;;;5.45;3.35;;;4.00;99.90;;;;;;4959511;28;20555;-83
2021/01/13 10:53:34;;;;;;;3.65;3.30;;;4.00;99.90;;;;;;4863987;28;20711;-84
2021/01/13 10:56:24;;;;;;;4.20;3.83;;;4.10;99.90;;;;;;4959275;28;20702;-83
2021/01/13 10:59:00;;;;;;;4.30;3.60;;;4.20;99.90;;;;;;4960306;29;20285;-84
2021/01/13 11:01:35;;;;;;;3.33;3.03;;;4.20;99.90;;;;;;4959333;28;20237;-84
2021/01/13 11:04:21;;;;;;;6.50;4.00;;;4.30;99.90;;;;;;4961540;29;20211;-84
2021/01/13 11:07:02;;;;;;;6.38;4.10;;;4.30;99.90;;;;;;4960675;29;20623;-84
2021/01/13 11:09:39;;;;;;;6.20;4.65;;;4.40;99.90;;;;;;4960562;28;20229;-85
2021/01/13 11:12:37;;;;;;;;;;;;;;;;;;;;;
2021/01/13 11:15:05;;;;;;;8.23;4.18;;;4.60;99.90;;;;;;4956352;28;20285;-84
2021/01/13 11:17:34;;;;;;;5.25;4.00;;;4.60;99.90;;;;;;4961591;29;20209;-84
2021/01/13 11:20:01;;;;;;;6.03;4.25;;;4.70;99.90;;;;;;4961174;28;20239;-85
2021/01/13 11:22:44;;;;;;;4.68;4.10;;;4.70;99.90;;;;;;4961306;29;20232;-84
2021/01/13 11:25:27;;;;;;;4.22;3.60;;;4.80;99.90;;;;;;4963281;29;20240;-85
2021/01/13 11:27:58;;;;;;;5.30;3.42;;;4.90;99.90;;;;;;4964068;29;20223;-83
2021/01/13 11:30:27;;;;;;;3.50;3.20;;;5.20;99.90;;;;;;4964127;28;20315;-84
2021/01/13 11:32:57;;;;;;;5.90;3.00;;;5.60;99.90;;;;;;4963073;29;20307;-84
2021/01/13 11:35:28;;;;;;;3.05;2.85;;;5.70;99.90;;;;;;4960522;29;20220;-83
2021/01/13 11:38:40;;;;;;;6.00;4.20;;;5.90;99.90;;;;;;4960092;29;20296;-83
2021/01/13 11:41:48;;;;;;;3.40;3.00;;;5.90;99.90;;;;;;4960169;28;20233;-83
2021/01/13 11:44:25;;;;;;;5.95;3.70;;;5.90;99.90;;;;;;4959732;28;20306;-83
2021/01/13 11:47:23;;;;;;;4.53;4.00;;;5.90;99.90;;;;;;4960420;29;20218;-83
2021/01/13 11:49:52;;;;;;;4.45;3.10;;;5.80;99.90;;;;;;4945842;28;20231;-84
2021/01/13 11:52:21;;;;;;;4.63;2.85;;;5.80;99.90;;;;;;4960373;29;20581;-83
2021/01/13 11:54:50;;;;;;;5.60;4.50;;;5.70;99.90;;;;;;4960607;29;20207;-83
2021/01/13 11:57:25;;;;;;;3.03;2.70;;;5.60;99.90;;;;;;4960273;29;20207;-83
2021/01/13 11:59:57;;;;;;;2.47;2.28;;;5.50;99.90;;;;;;4967049;28;20236;-83
2021/01/13 12:02:33;;;;;;;2.35;1.95;;;5.30;99.90;;;;;;4961138;29;20220;-83
2021/01/13 12:05:00;;;;;;;4.20;3.22;;;5.20;99.90;;;;;;4961553;29;20212;-83
2021/01/13 12:07:26;;;;;;;5.63;2.78;;;5.20;99.90;;;;;;4961062;28;20214;-84
2021/01/13 12:10:15;;;;;;;3.22;2.10;;;5.20;99.90;;;;;;4961562;28;20231;-83
2021/01/13 12:12:41;;;;;;;2.40;2.30;;;5.30;99.90;;;;;;4962074;28;20199;-83
2021/01/13 12:15:11;;;;;;;5.25;2.15;;;5.30;99.90;;;;;;4960208;28;20231;-83
2021/01/13 12:17:50;;;;;;;2.80;1.60;;;5.30;99.90;;;;;;4959076;29;20291;-83
2021/01/13 12:20:31;;;;;;;1.60;1.50;;;5.30;99.90;;;;;;4958395;28;20244;-83
2021/01/13 12:22:57;;;;;;;1.70;1.25;;;5.00;99.90;;;;;;4958254;29;20208;-83
2021/01/13 12:25:29;;;;;;;2.60;1.40;;;5.20;99.90;;;;;;4958342;29;20220;-83
2021/01/13 12:31:34;;;;;;;3.00;1.40;;;5.40;99.90;;;;;;4897702;28;20227;-83
2021/01/13 12:34:03;;;;;;;1.90;1.80;;;5.20;99.90;;;;;;4958517;29;20212;-83
2021/01/13 12:36:31;;;;;;;3.08;1.05;;;5.40;99.90;;;;;;4959198;29;20212;-82
2021/01/13 12:39:06;;;;;;;1.30;1.20;;;5.10;99.90;;;;;;4958583;29;20217;-83
2021/01/13 12:41:37;;;;;;;2.00;1.50;;;5.10;99.90;;;;;;4958184;28;20341;-83
2021/01/13 12:44:06;;;;;;;2.85;1.30;;;5.70;99.90;;;;;;4958098;29;20230;-83
2021/01/13 12:46:36;;;;;;;1.52;1.42;;;5.90;99.90;;;;;;4968540;28;20209;-83
2021/01/13 12:49:06;;;;;;;1.98;1.88;;;6.00;99.90;;;;;;4958363;29;20215;-83
2021/01/13 12:51:34;;;;;;;3.80;1.13;;;6.00;99.90;;;;;;4958046;28;20304;-83
2021/01/13 12:54:00;;;;;;;2.88;1.38;;;6.10;99.90;;;;;;4957267;29;20237;-83
2021/01/13 12:56:31;;;;;;;1.88;0.90;;;6.10;99.90;;;;;;4960025;28;20212;-83
2021/01/13 13:25:46;;;;;;;1.30;1.20;;;8.10;99.90;;;;;;4787742;29;20204;-85
2021/01/13 13:53:17;;;;;;;;;;;;;;;;;;;;;
2021/01/13 14:02:26;;;;;;;1.95;1.10;;;8.40;99.90;;;;;;4763154;29;20219;-85
2021/01/13 14:04:56;;;;;;;2.05;1.35;;;8.90;99.90;;;;;;4962563;28;20280;-85
2021/01/13 14:07:32;;;;;;;;;;;;;;;;;;;;;
2021/01/13 14:26:04;;;;;;;1.60;1.50;;;8.10;99.20;;;;;;4854586;29;20203;-84
2021/01/13 14:33:06;;;;;;;;;;;;;;;;;;;;;
2021/01/13 14:36:30;;;;;;;;;;;;;;;;;;;;;
2021/01/13 14:46:02;;;;;;;;;;;;;;;;;;;;;
2021/01/13 14:49:05;;;;;;;2.35;2.15;;;7.80;94.50;;;;;;4805945;29;20302;-84
2021/01/13 15:02:06;;;;;;;2.30;2.10;;;6.10;96.30;;;;;;4910580;29;20614;-83
2021/01/13 15:05:07;;;;;;;4.28;1.67;;;5.50;97.10;;;;;;4882332;29;20680;-83
2021/01/13 15:07:47;;;;;;;2.47;2.28;;;5.00;99.50;;;;;;4889141;29;20210;-83
2021/01/13 15:10:16;;;;;;;2.92;2.33;;;4.70;99.50;;;;;;4952146;28;20233;-83
2021/01/13 15:12:46;;;;;;;3.85;3.58;;;4.40;99.90;;;;;;4961080;29;20238;-83
2021/01/13 15:15:49;;;;;;;2.35;2.15;;;4.20;99.90;;;;;;4961574;29;20209;-83
2021/01/13 15:18:27;;;;;;;2.67;2.13;;;4.10;99.90;;;;;;4960303;29;20550;-83
2021/01/13 15:21:00;;;;;;;3.50;2.15;;;4.00;99.90;;;;;;4959507;28;20238;-83
2021/01/13 15:23:27;;;;;;;2.70;1.90;;;3.80;99.90;;;;;;4960174;29;20197;-83
2021/01/13 15:25:57;;;;;;;3.67;2.90;;;3.80;99.90;;;;;;4960977;29;20209;-83
2021/01/13 15:28:38;;;;;;;;;;;;;;;;;;;;;
2021/01/13 15:31:55;;;;;;;;;;;;;;;;;;;;;
2021/01/13 15:34:39;;;;;;;3.58;3.17;;;3.40;99.90;;;;;;4918302;28;20292;-83
2021/01/13 15:37:24;;;;;;;;;;;;;;;;;;;;;
2021/01/13 15:39:52;;;;;;;3.08;2.85;;;3.30;99.90;;;;;;4956892;28;20288;-82
2021/01/13 15:42:18;;;;;;;2.92;2.72;;;3.20;99.90;;;;;;4960350;29;20236;-83
2021/01/13 15:44:45;;;;;;;3.95;3.30;;;3.20;99.90;;;;;;4960325;29;20215;-83
2021/01/13 15:47:16;;;;;;;4.07;2.75;;;3.20;99.90;;;;;;4961053;29;20245;-83
2021/01/13 15:49:47;;;;;;;3.22;2.85;;;3.20;99.90;;;;;;4961052;28;20256;-83
2021/01/13 15:52:19;;;;;;;4.10;2.50;;;3.30;99.90;;;;;;4968151;28;20195;-83
2021/01/13 15:54:59;;;;;;;2.72;2.53;;;3.20;99.90;;;;;;4963786;29;20702;-83
2021/01/13 15:57:37;;;;;;;2.72;2.30;;;3.20;99.90;;;;;;4962262;29;20217;-83
2021/01/13 16:00:06;;;;;;;2.67;2.47;;;3.20;99.90;;;;;;4962352;28;20320;-83
2021/01/13 16:02:35;;;;;;;4.05;2.70;;;3.20;99.90;;;;;;4961872;29;20206;-83
2021/01/13 16:05:02;;;;;;;3.33;3.03;;;3.20;99.90;;;;;;4962077;29;20276;-83
2021/01/13 16:07:32;;;;;;;5.07;3.45;;;3.30;99.90;;;;;;4962036;29;20205;-82
2021/01/13 16:10:03;;;;;;;4.40;3.85;;;3.30;99.90;;;;;;4962497;28;20298;-83
2021/01/13 16:12:33;;;;;;;3.22;2.92;;;3.30;99.90;;;;;;4961682;29;20701;-83
2021/01/13 16:15:00;;;;;;;4.20;3.88;;;3.30;99.90;;;;;;4966516;29;20245;-82
2021/01/13 16:17:26;;;;;;;4.32;3.92;;;3.30;99.90;;;;;;4968007;29;20206;-82
2021/01/13 16:19:53;;;;;;;3.42;2.92;;;3.20;99.90;;;;;;4966379;28;20244;-82
2021/01/13 16:22:20;;;;;;;3.13;2.90;;;3.10;99.90;;;;;;4967011;29;20284;-82
2021/01/13 16:24:48;;;;;;;3.63;3.30;;;3.20;99.90;;;;;;4968455;29;20210;-83
2021/01/13 16:27:26;;;;;;;4.28;3.95;;;3.20;99.90;;;;;;4970211;29;20212;-83
2021/01/13 16:30:11;;;;;;;3.30;3.00;;;3.20;99.90;;;;;;4969011;28;20236;-85
2021/01/13 16:32:39;;;;;;;4.10;3.05;;;3.20;99.90;;;;;;4968638;29;20300;-84
2021/01/13 16:35:20;;;;;;;3.67;3.03;;;3.30;99.90;;;;;;4969938;29;20213;-85
2021/01/13 16:38:11;;;;;;;3.35;3.05;;;3.30;99.90;;;;;;4959640;29;20808;-85
2021/01/13 16:41:21;;;;;;;4.20;3.22;;;3.30;99.90;;;;;;4951424;28;20238;-85
2021/01/13 16:47:35;;;;;;;3.50;3.15;;;3.20;99.90;;;;;;4884413;29;20244;-82
